createdAt,value
2022-11-19T00:01:04.794Z,5.67
2022-11-19T00:04:10.976Z,8.13
2022-11-19T00:07:17.366Z,9.07
2022-11-19T00:10:25.269Z,8.40
2022-11-19T00:13:31.455Z,5.57
2022-11-19T00:16:38.207Z,8.70
2022-11-19T00:19:44.501Z,8.47
2022-11-19T00:22:53.342Z,4.83
2022-11-19T00:26:07.233Z,10.50
2022-11-19T00:29:17.831Z,12.57
2022-11-19T00:32:24.320Z,8.67
2022-11-19T00:35:30.421Z,7.47
2022-11-19T00:38:37.622Z,12.30
2022-11-19T00:41:45.605Z,15.23
2022-11-19T00:44:52.433Z,5.77
2022-11-19T00:47:58.409Z,4.27
2022-11-19T00:51:05.154Z,3.23
2022-11-19T00:54:11.640Z,2.87
2022-11-19T00:57:19.489Z,4.67
2022-11-19T01:00:26.185Z,4.50
2022-11-19T01:03:32.841Z,4.50
2022-11-19T01:06:39.260Z,3.90
2022-11-19T01:09:47.465Z,3.97
2022-11-19T01:13:14.476Z,3.63
2022-11-19T01:16:23.115Z,3.03
2022-11-19T01:19:29.332Z,9.47
2022-11-19T01:22:35.782Z,10.57
2022-11-19T01:25:42.188Z,6.43
2022-11-19T01:28:50.376Z,5.40
2022-11-19T01:31:56.629Z,4.03
2022-11-19T01:35:03.051Z,4.57
2022-11-19T01:38:09.516Z,6.87
2022-11-19T01:41:15.713Z,3.43
2022-11-19T01:45:00.373Z,2.93
2022-11-19T01:48:11.213Z,4.37
2022-11-19T01:51:22.688Z,10.73
2022-11-19T01:54:35.945Z,2.53
2022-11-19T01:57:42.749Z,3.47
2022-11-19T02:00:50.782Z,3.43
2022-11-19T02:04:00.728Z,5.43
2022-11-19T02:07:09.004Z,3.57
2022-11-19T02:10:15.542Z,3.37
2022-11-19T02:13:31.198Z,4.00
2022-11-19T02:16:52.194Z,9.30
2022-11-19T02:20:22.024Z,4.40
2022-11-19T02:24:01.867Z,5.17
2022-11-19T02:27:38.208Z,4.37
2022-11-19T02:30:51.019Z,7.83
2022-11-19T02:34:01.617Z,5.63
2022-11-19T02:37:14.733Z,14.73
2022-11-19T02:40:26.849Z,12.33
2022-11-19T02:43:39.273Z,7.13
2022-11-19T02:46:50.984Z,6.40
2022-11-19T02:50:02.291Z,8.73
2022-11-19T02:53:08.452Z,15.60
2022-11-19T02:56:17.910Z,7.10
2022-11-19T02:59:47.452Z,7.00
2022-11-19T03:03:15.174Z,3.63
2022-11-19T03:06:26.520Z,5.97
2022-11-19T03:09:36.328Z,5.37
2022-11-19T03:12:50.703Z,9.27
2022-11-19T03:16:15.380Z,3.70
2022-11-19T03:19:44.577Z,7.20
2022-11-19T03:22:55.400Z,5.67
2022-11-19T03:26:06.221Z,4.27
2022-11-19T03:29:16.291Z,3.50
2022-11-19T03:32:27.331Z,3.33
2022-11-19T03:35:38.882Z,3.43
2022-11-19T03:38:51.131Z,3.23
2022-11-19T03:41:59.118Z,3.70
2022-11-19T03:45:10.826Z,3.53
2022-11-19T03:48:18.731Z,3.53
2022-11-19T03:51:34.374Z,3.80
2022-11-19T03:54:41.666Z,4.70
2022-11-19T03:57:47.915Z,3.80
2022-11-19T04:00:54.185Z,4.07
2022-11-19T04:04:17.809Z,11.87
2022-11-19T04:07:25.462Z,16.17
2022-11-19T04:10:31.701Z,28.63
2022-11-19T04:13:38.031Z,10.07
2022-11-19T04:16:44.018Z,11.00
2022-11-19T04:19:50.140Z,4.83
2022-11-19T04:22:57.949Z,7.73
2022-11-19T04:26:04.145Z,17.90
2022-11-19T04:29:10.284Z,13.30
2022-11-19T04:32:16.577Z,26.00
2022-11-19T04:35:22.323Z,15.63
2022-11-19T04:38:29.867Z,14.70
2022-11-19T04:41:36.548Z,11.93
2022-11-19T04:44:42.603Z,10.97
2022-11-19T04:47:48.829Z,10.20
2022-11-19T04:50:55.136Z,7.03
2022-11-19T04:54:03.174Z,12.17
2022-11-19T04:57:09.370Z,12.00
2022-11-19T05:00:16.838Z,15.40
2022-11-19T05:03:23.188Z,14.57
2022-11-19T05:06:29.316Z,12.97
2022-11-19T05:09:36.842Z,7.20
2022-11-19T05:12:43.168Z,8.13
2022-11-19T05:15:49.246Z,11.03
2022-11-19T05:18:55.547Z,17.93
2022-11-19T05:22:01.860Z,16.60
2022-11-19T05:25:10.129Z,8.03
2022-11-19T05:28:16.550Z,5.17
2022-11-19T05:31:22.506Z,5.67
2022-11-19T05:34:28.992Z,5.43
2022-11-19T05:37:34.898Z,6.70
2022-11-19T05:40:42.446Z,10.23
2022-11-19T05:43:48.706Z,4.23
2022-11-19T05:46:56.876Z,6.10
2022-11-19T05:50:03.195Z,12.57
2022-11-19T05:53:09.441Z,14.10
2022-11-19T05:56:17.164Z,18.30
2022-11-19T05:59:23.383Z,16.17
2022-11-19T06:02:29.753Z,17.00
2022-11-19T06:05:40.007Z,13.43
2022-11-19T06:08:47.189Z,10.37
2022-11-19T06:11:54.461Z,17.23
2022-11-19T06:15:02.118Z,5.87
2022-11-19T06:18:08.570Z,7.40
2022-11-19T06:21:14.899Z,5.60
2022-11-19T06:24:21.941Z,5.30
2022-11-19T06:27:29.396Z,4.97
2022-11-19T06:30:35.870Z,11.10
2022-11-19T06:33:42.386Z,5.37
2022-11-19T06:36:50.697Z,7.87
2022-11-19T06:39:57.097Z,4.83
2022-11-19T06:43:05.308Z,5.70
2022-11-19T06:46:12.019Z,5.57
2022-11-19T06:49:20.333Z,5.70
2022-11-19T06:52:27.424Z,23.23
2022-11-19T06:55:33.839Z,30.37
2022-11-19T06:58:41.685Z,26.93
2022-11-19T07:01:47.965Z,14.67
2022-11-19T07:04:54.480Z,7.90
2022-11-19T07:08:03.262Z,11.53
2022-11-19T07:11:23.858Z,11.40
2022-11-19T07:14:31.645Z,11.53
2022-11-19T07:17:38.056Z,17.50
2022-11-19T07:20:47.056Z,8.63
2022-11-19T07:23:53.751Z,6.07
2022-11-19T07:26:59.851Z,4.87
2022-11-19T07:30:09.847Z,6.43
2022-11-19T07:33:16.330Z,14.43
2022-11-19T07:36:22.473Z,13.53
2022-11-19T07:39:29.739Z,7.77
2022-11-19T07:42:51.104Z,5.73
2022-11-19T07:45:58.778Z,10.67
2022-11-19T07:49:05.536Z,13.67
2022-11-19T07:52:11.798Z,18.53
2022-11-19T07:55:17.916Z,14.83
2022-11-19T07:58:24.035Z,11.47
2022-11-19T08:01:31.690Z,8.10
2022-11-19T08:04:38.209Z,8.53
2022-11-19T08:07:45.003Z,9.03
2022-11-19T08:10:51.324Z,8.07
2022-11-19T08:13:59.721Z,7.50
2022-11-19T08:17:24.975Z,5.97
2022-11-19T08:20:31.236Z,5.40
2022-11-19T08:23:38.425Z,8.00
2022-11-19T08:26:45.650Z,6.13
2022-11-19T08:29:52.108Z,11.03
2022-11-19T08:33:00.089Z,8.50
2022-11-19T08:36:07.046Z,9.17
2022-11-19T08:39:13.489Z,7.07
2022-11-19T08:42:37.328Z,5.77
2022-11-19T08:45:53.949Z,4.33
2022-11-19T08:49:01.875Z,5.00
2022-11-19T08:52:08.109Z,6.57
2022-11-19T08:55:14.384Z,5.33
2022-11-19T08:58:20.767Z,5.03
2022-11-19T09:01:27.184Z,10.80
2022-11-19T09:04:35.429Z,3.50
2022-11-19T09:07:41.947Z,3.57
2022-11-19T09:10:48.480Z,8.07
2022-11-19T09:13:54.667Z,6.30
2022-11-19T09:17:01.660Z,3.87
2022-11-19T09:20:10.615Z,4.30
2022-11-19T09:23:16.965Z,4.03
2022-11-19T09:26:23.732Z,3.80
2022-11-19T09:29:29.981Z,4.13
2022-11-19T09:32:36.467Z,5.93
2022-11-19T09:35:44.258Z,4.97
2022-11-19T09:38:50.453Z,7.60
2022-11-19T09:42:03.201Z,9.67
2022-11-19T09:45:18.589Z,6.10
2022-11-19T09:48:33.957Z,13.83
2022-11-19T09:51:47.586Z,9.03
2022-11-19T09:54:57.760Z,2.57
2022-11-19T09:58:07.933Z,3.43
2022-11-19T10:01:15.691Z,5.70
2022-11-19T10:04:25.196Z,5.20
2022-11-19T10:07:44.812Z,6.73
2022-11-19T10:11:05.760Z,7.07
2022-11-19T10:14:24.828Z,4.87
2022-11-19T10:17:41.223Z,5.87
2022-11-19T10:20:57.657Z,4.90
2022-11-19T10:24:18.267Z,11.20
2022-11-19T10:27:30.876Z,13.77
2022-11-19T10:30:37.475Z,5.17
2022-11-19T10:33:51.022Z,12.40
2022-11-19T10:37:01.529Z,5.13
2022-11-19T10:40:15.751Z,11.60
2022-11-19T10:43:29.968Z,6.60
2022-11-19T10:46:36.522Z,9.33
2022-11-19T10:49:44.619Z,12.33
2022-11-19T10:52:54.608Z,4.03
2022-11-19T10:56:04.847Z,15.27
2022-11-19T10:59:16.636Z,13.73
2022-11-19T11:02:30.673Z,10.60
2022-11-19T11:05:56.192Z,34.97
2022-11-19T11:09:02.216Z,16.83
2022-11-19T11:12:35.595Z,14.80
2022-11-19T11:15:46.877Z,19.87
2022-11-19T11:18:55.801Z,13.47
2022-11-19T11:22:02.065Z,12.60
2022-11-19T11:25:20.312Z,16.10
2022-11-19T11:28:27.841Z,17.97
2022-11-19T11:31:37.048Z,46.00
2022-11-19T11:34:44.512Z,43.87
2022-11-19T11:37:51.196Z,23.63
2022-11-19T11:44:35.954Z,10.73
2022-11-19T11:47:42.532Z,2.67
2022-11-19T11:50:49.285Z,5.27
2022-11-19T11:54:06.792Z,3.93
2022-11-19T11:57:18.828Z,2.50
2022-11-19T12:00:36.772Z,5.27
2022-11-19T12:04:04.084Z,2.53
2022-11-19T12:07:19.029Z,6.70
2022-11-19T12:10:31.609Z,3.07
2022-11-19T12:14:09.505Z,3.97
2022-11-19T12:17:31.393Z,3.53
2022-11-19T12:20:44.189Z,5.83
2022-11-19T12:24:06.241Z,2.63
2022-11-19T12:27:24.403Z,4.40
2022-11-19T12:30:39.082Z,6.70
2022-11-19T12:34:03.070Z,5.27
2022-11-19T12:37:23.092Z,7.90
2022-11-19T12:40:41.899Z,6.57
2022-11-19T12:43:55.793Z,6.07
2022-11-19T12:47:10.903Z,5.47
2022-11-19T12:50:24.773Z,5.10
2022-11-19T12:54:04.397Z,4.93
2022-11-19T12:57:30.160Z,2.73
2022-11-19T13:00:41.109Z,11.03
2022-11-19T13:03:56.509Z,7.30
2022-11-19T13:07:09.739Z,4.57
2022-11-19T13:10:19.903Z,7.40
2022-11-19T13:13:30.796Z,3.23
2022-11-19T13:16:37.412Z,3.93
2022-11-19T13:19:47.717Z,6.47
2022-11-19T13:22:59.332Z,5.77
2022-11-19T13:26:11.740Z,4.43
2022-11-19T13:29:30.267Z,4.67
2022-11-19T13:32:42.094Z,5.07
2022-11-19T13:35:54.110Z,5.20
2022-11-19T13:39:05.791Z,8.73
2022-11-19T13:42:29.863Z,5.60
2022-11-19T13:45:38.148Z,13.37
2022-11-19T13:48:48.057Z,8.03
2022-11-19T13:51:57.265Z,10.53
2022-11-19T13:55:07.192Z,10.67
2022-11-19T13:58:20.432Z,5.63
2022-11-19T14:01:57.237Z,7.00
2022-11-19T14:05:33.009Z,8.27
2022-11-19T14:08:58.586Z,5.10
2022-11-19T14:12:49.671Z,5.63
2022-11-19T14:16:33.685Z,4.03
2022-11-19T14:20:07.686Z,11.37
2022-11-19T14:24:01.599Z,5.13
2022-11-19T14:27:26.763Z,5.30
2022-11-19T14:31:05.204Z,3.67
2022-11-19T14:34:27.035Z,7.17
2022-11-19T14:37:39.748Z,10.53
2022-11-19T14:40:46.480Z,8.87
2022-11-19T14:44:11.188Z,6.37
2022-11-19T14:47:35.382Z,12.50
2022-11-19T14:50:41.846Z,10.17
2022-11-19T14:53:51.201Z,5.47
2022-11-19T14:57:05.632Z,13.60
2022-11-19T15:00:29.896Z,9.17
2022-11-19T15:03:38.446Z,10.37
2022-11-19T15:06:46.897Z,16.53
2022-11-19T15:10:04.314Z,12.10
2022-11-19T15:13:26.602Z,9.67
2022-11-19T15:16:36.377Z,11.07
2022-11-19T15:19:53.366Z,19.93
2022-11-19T15:23:09.922Z,17.27
2022-11-19T15:26:23.438Z,7.17
2022-11-19T15:30:01.090Z,12.23
2022-11-19T15:33:24.213Z,8.23
2022-11-19T15:36:39.731Z,14.83
2022-11-19T15:39:49.331Z,6.27
2022-11-19T15:43:03.259Z,10.70
2022-11-19T15:46:14.886Z,10.17
2022-11-19T15:49:24.386Z,10.77
2022-11-19T15:52:33.404Z,10.80
2022-11-19T15:55:40.036Z,10.80
2022-11-19T15:58:47.957Z,12.30
2022-11-19T16:02:01.184Z,16.37
2022-11-19T16:05:08.868Z,11.97
2022-11-19T16:08:17.290Z,7.93
2022-11-19T16:11:43.625Z,11.60
2022-11-19T16:15:13.010Z,9.17
2022-11-19T16:18:21.060Z,5.77
2022-11-19T16:21:32.622Z,7.00
2022-11-19T16:24:57.585Z,7.47
2022-11-19T16:28:07.498Z,16.30
2022-11-19T16:31:13.783Z,7.60
2022-11-19T16:34:23.860Z,7.13
2022-11-19T16:37:30.458Z,6.70
2022-11-19T16:40:51.813Z,7.83
2022-11-19T16:43:58.711Z,9.33
2022-11-19T16:47:07.990Z,6.57
2022-11-19T16:50:28.237Z,6.73
2022-11-19T16:53:46.764Z,6.20
2022-11-19T16:56:54.597Z,6.07
2022-11-19T17:00:04.478Z,12.70
2022-11-19T17:03:20.580Z,16.93
2022-11-19T17:06:26.877Z,5.50
2022-11-19T17:09:41.666Z,8.33
2022-11-19T17:12:54.068Z,9.03
2022-11-19T17:16:18.217Z,4.10
2022-11-19T17:19:32.077Z,8.20
2022-11-19T17:22:40.657Z,6.50
2022-11-19T17:25:48.857Z,10.77
2022-11-19T17:29:08.674Z,8.77
2022-11-19T17:32:15.345Z,18.60
2022-11-19T17:35:37.934Z,23.50
2022-11-19T17:38:44.844Z,17.27
2022-11-19T17:42:08.741Z,13.73
2022-11-19T17:45:16.752Z,13.00
2022-11-19T17:48:24.739Z,8.70
2022-11-19T17:51:31.338Z,9.73
2022-11-19T17:54:37.609Z,7.33
2022-11-19T17:57:43.791Z,12.57
2022-11-19T18:00:51.686Z,9.03
2022-11-19T18:03:57.826Z,10.07
2022-11-19T18:07:04.146Z,11.13
2022-11-19T18:10:11.044Z,14.23
2022-11-19T18:13:22.057Z,8.27
2022-11-19T18:16:35.090Z,9.37
2022-11-19T18:19:41.994Z,25.00
2022-11-19T18:22:48.349Z,22.63
2022-11-19T18:25:54.810Z,17.57
2022-11-19T18:29:01.390Z,18.07
2022-11-19T18:32:15.372Z,15.93
2022-11-19T18:35:22.709Z,19.07
2022-11-19T18:38:28.728Z,18.80
2022-11-19T18:41:34.733Z,18.40
2022-11-19T18:44:43.539Z,20.33
2022-11-19T18:47:51.467Z,14.20
2022-11-19T18:50:57.662Z,8.13
2022-11-19T18:54:04.366Z,19.03
2022-11-19T18:57:11.222Z,14.00
2022-11-19T19:00:17.612Z,10.63
2022-11-19T19:03:25.437Z,12.90
2022-11-19T19:06:32.526Z,10.77
2022-11-19T19:09:38.565Z,9.57
2022-11-19T19:12:44.624Z,8.67
2022-11-19T19:15:50.997Z,9.33
2022-11-19T19:18:58.617Z,3.77
2022-11-19T19:22:05.902Z,9.30
2022-11-19T19:25:12.380Z,8.10
2022-11-19T19:28:18.523Z,5.83
2022-11-19T19:31:25.425Z,11.73
2022-11-19T19:34:33.047Z,8.97
2022-11-19T19:37:39.895Z,6.33
2022-11-19T19:40:45.901Z,5.90
2022-11-19T19:43:52.398Z,4.77
2022-11-19T19:46:58.792Z,4.57
2022-11-19T19:50:07.125Z,3.30
2022-11-19T19:53:13.611Z,4.20
2022-11-19T19:56:22.380Z,7.63
2022-11-19T19:59:28.219Z,8.67
2022-11-19T20:02:34.462Z,5.17
2022-11-19T20:05:48.570Z,5.23
2022-11-19T20:08:54.466Z,6.17
2022-11-19T20:12:01.025Z,4.90
2022-11-19T20:15:08.261Z,3.40
2022-11-19T20:18:14.579Z,9.40
2022-11-19T20:21:24.468Z,8.70
2022-11-19T20:24:30.800Z,10.10
2022-11-19T20:27:36.941Z,5.87
2022-11-19T20:30:42.835Z,3.93
2022-11-19T20:33:53.794Z,3.30
2022-11-19T20:37:01.010Z,4.50
2022-11-19T20:40:07.969Z,18.60
2022-11-19T20:43:31.979Z,10.87
2022-11-19T20:46:38.241Z,7.47
2022-11-19T20:49:44.497Z,3.07
2022-11-19T20:52:52.076Z,9.87
2022-11-19T20:56:05.062Z,5.87
2022-11-19T20:59:12.750Z,2.77
2022-11-19T21:02:19.162Z,3.97
2022-11-19T21:05:25.504Z,3.67
2022-11-19T21:08:33.550Z,3.20
2022-11-19T21:11:39.879Z,2.83
2022-11-19T21:14:46.550Z,3.87
2022-11-19T21:17:52.589Z,3.50
2022-11-19T21:21:02.566Z,2.90
2022-11-19T21:24:10.289Z,4.10
2022-11-19T21:27:16.239Z,3.50
2022-11-19T21:30:22.554Z,4.77
2022-11-19T21:33:28.766Z,3.50
2022-11-19T21:36:35.294Z,5.53
2022-11-19T21:39:42.677Z,5.50
2022-11-19T21:42:48.821Z,2.83
2022-11-19T21:45:55.969Z,5.87
2022-11-19T21:49:02.188Z,3.30
2022-11-19T21:52:08.412Z,4.70
2022-11-19T21:55:16.081Z,6.73
2022-11-19T21:58:22.597Z,3.97
2022-11-19T22:01:28.815Z,6.33
2022-11-19T22:04:35.330Z,2.50
2022-11-19T22:07:41.600Z,2.50
2022-11-19T22:10:51.266Z,2.27
2022-11-19T22:13:58.402Z,3.80
2022-11-19T22:17:04.660Z,4.50
2022-11-19T22:20:11.983Z,1.77
2022-11-19T22:23:23.992Z,8.20
2022-11-19T22:26:32.322Z,1.63
2022-11-19T22:29:41.469Z,2.10
2022-11-19T22:32:47.598Z,1.90
2022-11-19T22:35:58.720Z,2.20
2022-11-19T22:39:05.310Z,2.70
2022-11-19T22:42:12.752Z,6.10
2022-11-19T22:45:19.079Z,1.70
2022-11-19T22:48:25.613Z,3.20
2022-11-19T22:51:31.994Z,1.80
2022-11-19T22:54:41.582Z,2.37
2022-11-19T22:57:49.830Z,1.70
2022-11-19T23:00:56.447Z,2.03
2022-11-19T23:04:05.960Z,2.40
2022-11-19T23:07:12.287Z,1.50
2022-11-19T23:10:18.825Z,2.03
2022-11-19T23:13:32.867Z,7.27
2022-11-19T23:16:39.575Z,5.90
2022-11-19T23:19:45.729Z,4.83
2022-11-19T23:22:51.659Z,7.20
2022-11-19T23:25:58.739Z,4.57
2022-11-19T23:29:06.631Z,14.03
2022-11-19T23:32:12.851Z,7.43
2022-11-19T23:35:19.447Z,3.53
2022-11-19T23:38:25.993Z,11.37
2022-11-19T23:41:33.602Z,9.73
2022-11-19T23:44:41.114Z,2.63
2022-11-19T23:47:47.223Z,3.50
2022-11-19T23:50:53.432Z,2.40
2022-11-19T23:54:00.090Z,2.00
2022-11-19T23:57:06.369Z,5.57
